createdAt,value
2022-10-12T00:02:19.913Z,15.41
2022-10-12T00:04:46.751Z,15.54
2022-10-12T00:07:13.531Z,15.43
2022-10-12T00:09:40.306Z,15.48
2022-10-12T00:12:07.126Z,15.43
2022-10-12T00:14:36.967Z,15.51
2022-10-12T00:17:04.239Z,15.52
2022-10-12T00:19:31.017Z,15.53
2022-10-12T00:21:57.818Z,15.54
2022-10-12T00:24:25.450Z,15.49
2022-10-12T00:26:52.291Z,15.48
2022-10-12T00:29:19.066Z,15.47
2022-10-12T00:31:45.831Z,15.43
2022-10-12T00:34:12.580Z,15.44
2022-10-12T00:36:39.413Z,15.39
2022-10-12T00:39:08.385Z,15.48
2022-10-12T00:41:40.697Z,15.51
2022-10-12T00:44:45.520Z,15.47
2022-10-12T00:47:38.896Z,15.39
2022-10-12T00:50:17.836Z,15.45
2022-10-12T00:53:00.012Z,15.31
2022-10-12T00:55:33.034Z,15.31
2022-10-12T00:58:00.867Z,15.28
2022-10-12T01:00:27.717Z,15.30
2022-10-12T01:02:55.212Z,15.32
2022-10-12T01:05:23.005Z,15.26
2022-10-12T01:07:50.091Z,15.29
2022-10-12T01:10:16.942Z,15.27
2022-10-12T01:12:47.277Z,15.13
2022-10-12T01:15:14.441Z,15.22
2022-10-12T01:18:05.166Z,15.29
2022-10-12T01:20:59.612Z,15.13
2022-10-12T01:23:48.833Z,15.23
2022-10-12T01:26:38.461Z,15.16
2022-10-12T01:29:50.436Z,15.18
2022-10-12T01:32:39.097Z,15.16
2022-10-12T01:35:37.076Z,15.16
2022-10-12T01:38:13.849Z,15.11
2022-10-12T01:40:51.419Z,15.06
2022-10-12T01:43:18.684Z,15.08
2022-10-12T01:45:45.433Z,15.01
2022-10-12T01:48:12.247Z,15.04
2022-10-12T01:50:53.897Z,14.91
2022-10-12T01:54:04.319Z,15.03
2022-10-12T01:57:52.479Z,14.91
2022-10-12T02:00:19.773Z,14.90
2022-10-12T02:03:10.416Z,14.95
2022-10-12T02:06:01.440Z,14.77
2022-10-12T02:08:52.902Z,14.91
2022-10-12T02:11:23.218Z,14.64
2022-10-12T02:14:03.108Z,14.90
2022-10-12T02:16:37.199Z,14.84
2022-10-12T02:19:07.318Z,14.76
2022-10-12T02:21:35.332Z,14.79
2022-10-12T02:24:06.906Z,14.83
2022-10-12T02:26:37.958Z,14.74
2022-10-12T02:29:11.017Z,14.80
2022-10-12T02:31:55.350Z,14.79
2022-10-12T02:35:06.646Z,14.71
2022-10-12T02:37:55.541Z,14.63
2022-10-12T02:40:33.687Z,14.69
2022-10-12T02:43:29.553Z,14.67
2022-10-12T02:45:58.609Z,14.67
2022-10-12T02:48:26.691Z,14.59
2022-10-12T02:50:56.832Z,14.60
2022-10-12T02:53:25.928Z,14.57
2022-10-12T02:56:00.423Z,14.52
2022-10-12T02:58:27.345Z,14.53
2022-10-12T03:00:54.245Z,14.46
2022-10-12T03:03:21.062Z,14.51
2022-10-12T03:05:47.820Z,14.41
2022-10-12T03:08:14.629Z,14.48
2022-10-12T03:10:41.382Z,14.37
2022-10-12T03:13:08.279Z,14.45
2022-10-12T03:15:35.082Z,14.29
2022-10-12T03:18:01.831Z,14.32
2022-10-12T03:20:28.589Z,14.34
2022-10-12T03:22:55.458Z,14.33
2022-10-12T03:25:22.207Z,14.31
2022-10-12T03:27:49.063Z,14.28
2022-10-12T03:30:16.407Z,14.32
2022-10-12T03:32:43.360Z,14.32
2022-10-12T03:35:10.288Z,14.29
2022-10-12T03:37:37.170Z,14.24
2022-10-12T03:40:04.734Z,14.22
2022-10-12T03:42:31.510Z,14.27
2022-10-12T03:44:58.265Z,14.19
2022-10-12T03:47:25.140Z,14.24
2022-10-12T03:49:51.921Z,14.21
2022-10-12T03:52:18.651Z,14.19
2022-10-12T03:54:45.432Z,14.24
2022-10-12T03:57:12.199Z,14.11
2022-10-12T03:59:39.046Z,14.22
2022-10-12T04:02:05.794Z,14.22
2022-10-12T04:04:32.555Z,14.25
2022-10-12T04:06:59.368Z,14.25
2022-10-12T04:09:26.114Z,14.26
2022-10-12T04:11:52.847Z,14.26
2022-10-12T04:14:19.606Z,14.22
2022-10-12T04:16:46.394Z,14.23
2022-10-12T04:19:14.034Z,14.25
2022-10-12T04:21:41.148Z,14.25
2022-10-12T04:24:08.091Z,14.30
2022-10-12T04:26:34.981Z,14.18
2022-10-12T04:29:01.774Z,14.26
2022-10-12T04:31:28.570Z,14.30
2022-10-12T04:33:58.688Z,14.27
2022-10-12T04:36:26.728Z,14.28
2022-10-12T04:38:58.446Z,14.33
2022-10-12T04:41:27.673Z,14.24
2022-10-12T04:43:54.705Z,14.35
2022-10-12T04:46:21.882Z,14.36
2022-10-12T04:48:48.639Z,14.31
2022-10-12T04:51:15.615Z,14.36
2022-10-12T04:53:42.364Z,14.29
2022-10-12T04:56:09.271Z,14.36
2022-10-12T04:58:36.265Z,14.41
2022-10-12T05:01:03.203Z,14.31
2022-10-12T05:03:30.129Z,14.31
2022-10-12T05:05:56.974Z,14.28
2022-10-12T05:08:23.805Z,14.43
2022-10-12T05:10:50.600Z,14.40
2022-10-12T05:13:17.613Z,14.46
2022-10-12T05:15:45.166Z,14.40
2022-10-12T05:18:12.212Z,14.42
2022-10-12T05:20:39.114Z,14.49
2022-10-12T05:23:05.861Z,14.42
2022-10-12T05:25:32.718Z,14.49
2022-10-12T05:27:59.570Z,14.45
2022-10-12T05:30:26.468Z,14.51
2022-10-12T05:32:53.233Z,14.46
2022-10-12T05:35:20.043Z,14.54
2022-10-12T05:37:46.806Z,14.47
2022-10-12T05:40:13.743Z,14.45
2022-10-12T05:42:40.838Z,14.47
2022-10-12T05:45:08.398Z,14.50
2022-10-12T05:47:35.321Z,14.48
2022-10-12T05:50:02.298Z,14.52
2022-10-12T05:52:29.112Z,14.57
2022-10-12T05:54:55.882Z,14.43
2022-10-12T05:57:22.654Z,14.57
2022-10-12T05:59:49.498Z,14.59
2022-10-12T06:02:18.258Z,14.55
2022-10-12T06:04:45.539Z,14.57
2022-10-12T06:07:12.391Z,14.61
2022-10-12T06:09:39.583Z,14.62
2022-10-12T06:12:09.337Z,14.58
2022-10-12T06:14:36.266Z,14.64
2022-10-12T06:17:03.105Z,14.56
2022-10-12T06:19:29.919Z,14.58
2022-10-12T06:21:57.377Z,14.65
2022-10-12T06:24:24.149Z,14.68
2022-10-12T06:26:50.906Z,14.53
2022-10-12T06:29:17.694Z,14.63
2022-10-12T06:31:48.942Z,14.68
2022-10-12T06:34:18.386Z,14.73
2022-10-12T06:36:45.152Z,14.69
2022-10-12T06:39:12.111Z,14.70
2022-10-12T06:41:39.081Z,14.76
2022-10-12T06:44:06.625Z,14.70
2022-10-12T06:46:33.517Z,14.64
2022-10-12T06:49:00.324Z,14.66
2022-10-12T06:51:27.091Z,14.80
2022-10-12T06:53:56.981Z,14.76
2022-10-12T06:56:23.772Z,14.78
2022-10-12T06:58:55.716Z,14.82
2022-10-12T07:01:22.766Z,14.82
2022-10-12T07:03:49.605Z,14.78
2022-10-12T07:06:16.446Z,14.70
2022-10-12T07:08:43.319Z,14.85
2022-10-12T07:11:12.846Z,14.81
2022-10-12T07:13:39.746Z,14.83
2022-10-12T07:16:06.999Z,14.87
2022-10-12T07:18:34.215Z,14.90
2022-10-12T07:21:02.467Z,14.89
2022-10-12T07:23:32.059Z,14.88
2022-10-12T07:25:59.303Z,14.87
2022-10-12T07:28:26.949Z,14.92
2022-10-12T07:30:53.812Z,14.93
2022-10-12T07:33:20.576Z,14.97
2022-10-12T07:36:13.260Z,14.96
2022-10-12T07:38:44.660Z,14.94
2022-10-12T07:41:12.061Z,15.01
2022-10-12T07:43:39.195Z,14.99
2022-10-12T07:46:06.056Z,15.04
2022-10-12T07:48:34.091Z,15.11
2022-10-12T07:51:09.987Z,14.94
2022-10-12T07:53:38.812Z,15.14
2022-10-12T07:56:14.889Z,15.13
2022-10-12T07:58:49.987Z,15.15
2022-10-12T08:01:17.898Z,15.08
2022-10-12T08:03:44.726Z,15.07
2022-10-12T08:06:16.150Z,15.16
2022-10-12T08:08:43.266Z,15.19
2022-10-12T08:11:11.063Z,15.22
2022-10-12T08:13:38.598Z,15.21
2022-10-12T08:16:10.231Z,15.24
2022-10-12T08:18:37.126Z,15.24
2022-10-12T08:21:05.907Z,15.31
2022-10-12T08:23:32.688Z,15.30
2022-10-12T08:25:59.688Z,15.28
2022-10-12T08:28:26.705Z,15.34
2022-10-12T08:30:53.561Z,15.28
2022-10-12T08:33:20.740Z,15.38
2022-10-12T08:35:47.985Z,15.41
2022-10-12T08:38:15.875Z,15.46
2022-10-12T08:40:53.963Z,15.42
2022-10-12T08:43:46.842Z,15.53
2022-10-12T08:46:13.739Z,15.55
2022-10-12T08:48:51.844Z,15.55
2022-10-12T08:51:24.658Z,15.53
2022-10-12T08:54:08.323Z,15.57
2022-10-12T08:56:35.819Z,15.59
2022-10-12T08:59:03.667Z,15.61
2022-10-12T09:02:07.596Z,15.66
2022-10-12T09:05:01.398Z,15.67
2022-10-12T09:07:46.227Z,15.65
2022-10-12T09:10:44.242Z,15.69
2022-10-12T09:13:28.336Z,15.72
2022-10-12T09:16:22.864Z,15.75
2022-10-12T09:19:20.825Z,15.70
2022-10-12T09:21:49.631Z,15.77
2022-10-12T09:24:21.069Z,15.80
2022-10-12T09:26:52.828Z,15.87
2022-10-12T09:29:27.050Z,15.89
2022-10-12T09:32:35.413Z,15.89
2022-10-12T09:35:04.304Z,15.91
2022-10-12T09:37:32.502Z,15.92
2022-10-12T09:39:59.841Z,15.92
2022-10-12T09:42:26.621Z,15.89
2022-10-12T09:45:02.501Z,15.91
2022-10-12T09:47:32.108Z,15.93
2022-10-12T09:50:05.758Z,15.97
2022-10-12T09:52:35.402Z,16.02
2022-10-12T09:55:05.792Z,16.05
2022-10-12T09:57:39.873Z,15.98
2022-10-12T10:00:27.232Z,16.09
2022-10-12T10:02:56.329Z,16.05
2022-10-12T10:05:38.022Z,16.13
2022-10-12T10:08:24.155Z,16.06
2022-10-12T10:10:57.041Z,16.14
2022-10-12T10:13:31.225Z,16.14
2022-10-12T10:16:08.110Z,16.17
2022-10-12T10:18:48.696Z,16.16
2022-10-12T10:21:29.271Z,16.20
2022-10-12T10:24:00.549Z,16.20
2022-10-12T10:26:29.919Z,16.20
2022-10-12T10:29:23.099Z,16.24
2022-10-12T10:32:11.779Z,16.25
2022-10-12T10:34:41.609Z,16.25
2022-10-12T10:37:20.250Z,16.17
2022-10-12T10:39:51.761Z,16.26
2022-10-12T10:42:25.226Z,16.28
2022-10-12T10:45:08.631Z,16.29
2022-10-12T10:47:46.350Z,16.25
2022-10-12T10:50:33.242Z,16.26
2022-10-12T10:53:04.843Z,16.31
2022-10-12T10:55:45.615Z,16.32
2022-10-12T10:58:38.750Z,16.37
2022-10-12T11:01:37.969Z,16.38
2022-10-12T11:04:09.977Z,16.39
2022-10-12T11:06:48.995Z,16.40
2022-10-12T11:09:22.635Z,16.40
2022-10-12T11:12:02.681Z,16.43
2022-10-12T11:14:46.013Z,16.39
2022-10-12T11:17:24.623Z,16.43
2022-10-12T11:20:21.775Z,16.42
2022-10-12T11:22:54.303Z,16.42
2022-10-12T11:25:40.221Z,16.44
2022-10-12T11:28:08.184Z,16.38
2022-10-12T11:30:47.603Z,16.30
2022-10-12T11:33:38.482Z,16.48
2022-10-12T11:36:15.126Z,16.52
2022-10-12T11:38:47.427Z,16.50
2022-10-12T11:42:16.520Z,16.47
2022-10-12T11:44:44.908Z,16.55
2022-10-12T11:47:29.711Z,16.61
2022-10-12T11:50:27.130Z,16.53
2022-10-12T11:52:56.864Z,16.63
2022-10-12T11:55:35.709Z,16.65
2022-10-12T11:58:13.850Z,16.72
2022-10-12T12:00:49.748Z,16.70
2022-10-12T12:03:30.865Z,16.73
2022-10-12T12:06:29.602Z,16.73
2022-10-12T12:09:19.788Z,16.71
2022-10-12T12:11:46.547Z,16.71
2022-10-12T12:14:25.590Z,16.79
2022-10-12T12:17:20.743Z,16.82
2022-10-12T12:20:03.772Z,16.76
2022-10-12T12:22:50.323Z,16.80
2022-10-12T12:25:23.851Z,16.87
2022-10-12T12:28:22.359Z,16.88
2022-10-12T12:31:02.189Z,16.91
2022-10-12T12:33:36.079Z,16.85
2022-10-12T12:36:08.426Z,16.93
2022-10-12T12:38:46.712Z,16.88
2022-10-12T12:41:22.212Z,16.87
2022-10-12T12:43:56.374Z,16.95
2022-10-12T12:46:27.066Z,16.90
2022-10-12T12:48:53.727Z,16.99
2022-10-12T12:51:35.115Z,16.86
2022-10-12T12:54:18.041Z,16.99
2022-10-12T12:57:28.851Z,17.01
2022-10-12T13:00:22.782Z,16.97
2022-10-12T13:03:18.927Z,17.01
2022-10-12T13:06:41.255Z,17.13
2022-10-12T13:09:34.159Z,17.15
2022-10-12T13:12:43.245Z,17.12
2022-10-12T13:15:52.752Z,17.05
2022-10-12T13:18:48.019Z,17.13
2022-10-12T13:21:26.302Z,17.13
2022-10-12T13:24:19.312Z,17.11
2022-10-12T13:26:51.654Z,17.10
2022-10-12T13:29:48.567Z,17.19
2022-10-12T13:32:54.090Z,17.21
2022-10-12T13:35:40.435Z,17.20
2022-10-12T13:38:25.415Z,17.26
2022-10-12T13:41:17.825Z,17.23
2022-10-12T13:43:57.017Z,17.28
2022-10-12T13:46:59.134Z,17.31
2022-10-12T13:49:35.610Z,17.33
2022-10-12T13:52:22.621Z,17.33
2022-10-12T13:54:50.574Z,17.26
2022-10-12T13:57:23.070Z,17.36
2022-10-12T13:59:57.616Z,17.35
2022-10-12T14:02:28.158Z,17.32
2022-10-12T14:04:57.956Z,17.37
2022-10-12T14:07:45.657Z,17.33
2022-10-12T14:10:36.475Z,17.36
2022-10-12T14:13:04.991Z,17.33
2022-10-12T14:15:38.951Z,17.40
2022-10-12T14:18:32.324Z,17.35
2022-10-12T14:21:27.719Z,17.41
2022-10-12T14:23:58.216Z,17.41
2022-10-12T14:26:38.295Z,17.42
2022-10-12T14:29:40.465Z,17.44
2022-10-12T14:32:37.410Z,17.44
2022-10-12T14:35:19.139Z,17.31
2022-10-12T14:37:47.536Z,17.54
2022-10-12T14:40:28.147Z,17.44
2022-10-12T14:43:04.132Z,17.56
2022-10-12T14:45:32.684Z,17.50
2022-10-12T14:48:01.418Z,17.51
2022-10-12T14:50:31.245Z,17.66
2022-10-12T14:53:02.884Z,17.74
2022-10-12T14:55:32.704Z,17.72
2022-10-12T14:58:00.051Z,17.55
2022-10-12T15:00:37.817Z,17.77
2022-10-12T15:03:05.337Z,17.83
2022-10-12T15:05:33.738Z,17.80
2022-10-12T15:08:07.060Z,17.84
2022-10-12T15:10:34.004Z,17.82
2022-10-12T15:13:00.830Z,17.86
2022-10-12T15:15:43.833Z,17.83
2022-10-12T15:18:11.032Z,17.87
2022-10-12T15:20:38.879Z,17.87
2022-10-12T15:23:06.284Z,17.89
2022-10-12T15:25:42.769Z,17.84
2022-10-12T15:28:09.832Z,17.85
2022-10-12T15:30:47.528Z,17.88
2022-10-12T15:33:24.389Z,17.89
2022-10-12T15:35:51.294Z,17.87
2022-10-12T15:38:18.144Z,17.81
2022-10-12T15:40:46.141Z,17.87
2022-10-12T15:43:13.318Z,17.91
2022-10-12T15:45:41.056Z,17.89
2022-10-12T15:48:09.748Z,17.83
2022-10-12T15:50:49.153Z,17.93
2022-10-12T15:53:25.295Z,17.90
2022-10-12T15:55:54.250Z,17.91
2022-10-12T15:58:21.629Z,17.81
2022-10-12T16:00:48.594Z,17.85
2022-10-12T16:03:24.536Z,17.88
2022-10-12T16:05:53.360Z,17.82
2022-10-12T16:08:20.152Z,17.82
2022-10-12T16:10:47.804Z,17.82
2022-10-12T16:13:15.513Z,17.82
2022-10-12T16:15:43.905Z,17.81
2022-10-12T16:18:11.697Z,17.75
2022-10-12T16:20:53.596Z,17.76
2022-10-12T16:23:29.353Z,17.73
2022-10-12T16:26:00.990Z,17.65
2022-10-12T16:28:28.084Z,17.47
2022-10-12T16:30:55.489Z,17.13
2022-10-12T16:33:22.611Z,17.33
2022-10-12T16:35:49.522Z,17.17
2022-10-12T16:38:19.714Z,16.90
2022-10-12T16:40:48.588Z,17.50
2022-10-12T16:43:15.477Z,17.48
2022-10-12T16:45:42.252Z,17.39
2022-10-12T16:48:09.112Z,17.40
2022-10-12T16:50:40.673Z,17.40
2022-10-12T16:53:08.076Z,17.37
2022-10-12T16:55:38.619Z,17.38
2022-10-12T16:58:05.646Z,17.32
2022-10-12T17:00:33.392Z,17.33
2022-10-12T17:03:00.278Z,17.21
2022-10-12T17:05:27.058Z,17.26
2022-10-12T17:07:53.880Z,17.24
2022-10-12T17:10:20.742Z,17.23
2022-10-12T17:12:47.657Z,17.18
2022-10-12T17:15:14.498Z,17.15
2022-10-12T17:17:41.289Z,17.10
2022-10-12T17:20:08.981Z,17.00
2022-10-12T17:22:35.846Z,16.99
2022-10-12T17:25:02.750Z,16.98
2022-10-12T17:27:32.157Z,16.94
2022-10-12T17:29:59.498Z,16.89
2022-10-12T17:32:26.653Z,16.82
2022-10-12T17:34:53.488Z,16.79
2022-10-12T17:37:21.839Z,16.83
2022-10-12T17:39:50.133Z,16.68
2022-10-12T17:42:18.014Z,16.73
2022-10-12T17:44:45.019Z,16.74
2022-10-12T17:47:11.798Z,16.51
2022-10-12T17:49:38.648Z,16.64
2022-10-12T17:52:05.751Z,16.59
2022-10-12T17:54:32.811Z,16.47
2022-10-12T17:56:59.549Z,16.55
2022-10-12T17:59:26.726Z,16.43
2022-10-12T18:01:54.230Z,16.49
2022-10-12T18:04:21.294Z,16.39
2022-10-12T18:06:48.134Z,16.44
2022-10-12T18:09:14.950Z,16.35
2022-10-12T18:11:41.903Z,16.19
2022-10-12T18:14:10.818Z,16.26
2022-10-12T18:16:38.170Z,16.20
2022-10-12T18:19:06.830Z,16.19
2022-10-12T18:21:34.144Z,16.13
2022-10-12T18:24:09.330Z,16.12
2022-10-12T18:26:39.688Z,16.07
2022-10-12T18:29:06.499Z,16.10
2022-10-12T18:31:33.356Z,16.03
2022-10-12T18:34:00.181Z,16.03
2022-10-12T18:36:27.689Z,15.97
2022-10-12T18:38:54.822Z,16.01
2022-10-12T18:41:25.593Z,16.01
2022-10-12T18:43:58.636Z,16.05
2022-10-12T18:46:28.519Z,15.98
2022-10-12T18:48:56.075Z,15.87
2022-10-12T18:51:27.822Z,15.88
2022-10-12T18:53:55.862Z,15.81
2022-10-12T18:56:22.883Z,15.85
2022-10-12T18:58:50.246Z,15.83
2022-10-12T19:01:22.146Z,15.84
2022-10-12T19:03:49.146Z,15.74
2022-10-12T19:06:22.626Z,15.76
2022-10-12T19:08:50.161Z,15.80
2022-10-12T19:11:20.618Z,15.78
2022-10-12T19:13:57.330Z,15.75
2022-10-12T19:16:24.834Z,15.70
2022-10-12T19:19:19.679Z,15.73
2022-10-12T19:21:49.233Z,15.46
2022-10-12T19:24:16.193Z,15.60
2022-10-12T19:26:43.863Z,15.65
2022-10-12T19:29:11.062Z,15.60
2022-10-12T19:31:42.247Z,15.49
2022-10-12T19:34:12.315Z,15.50
2022-10-12T19:36:40.360Z,15.52
2022-10-12T19:39:12.066Z,15.47
2022-10-12T19:41:39.162Z,15.42
2022-10-12T19:44:06.891Z,15.37
2022-10-12T19:46:34.896Z,15.35
2022-10-12T19:49:01.735Z,15.26
2022-10-12T19:51:30.818Z,15.27
2022-10-12T19:54:01.720Z,15.24
2022-10-12T19:56:28.837Z,15.06
2022-10-12T19:58:57.480Z,15.15
2022-10-12T20:01:32.094Z,15.05
2022-10-12T20:03:59.434Z,15.18
2022-10-12T20:06:30.392Z,15.12
2022-10-12T20:09:01.475Z,15.11
2022-10-12T20:11:28.530Z,14.99
2022-10-12T20:13:56.179Z,15.02
2022-10-12T20:16:25.343Z,14.93
2022-10-12T20:18:52.658Z,14.94
2022-10-12T20:21:22.644Z,14.86
2022-10-12T20:23:51.173Z,14.80
2022-10-12T20:26:24.384Z,14.69
2022-10-12T20:28:53.532Z,14.72
2022-10-12T20:31:23.579Z,14.79
2022-10-12T20:33:54.889Z,14.76
2022-10-12T20:36:32.145Z,14.76
2022-10-12T20:38:59.835Z,14.73
2022-10-12T20:41:27.810Z,14.69
2022-10-12T20:43:59.955Z,14.64
2022-10-12T20:46:28.755Z,14.62
2022-10-12T20:48:59.378Z,14.58
2022-10-12T20:51:33.343Z,14.51
2022-10-12T20:54:01.338Z,14.50
2022-10-12T20:56:30.646Z,14.48
2022-10-12T20:58:58.220Z,14.46
2022-10-12T21:01:28.692Z,14.34
2022-10-12T21:03:55.950Z,14.36
2022-10-12T21:06:23.532Z,14.35
2022-10-12T21:08:52.725Z,14.35
2022-10-12T21:11:20.201Z,14.30
2022-10-12T21:13:47.081Z,14.30
2022-10-12T21:16:14.275Z,14.27
2022-10-12T21:18:41.979Z,14.22
2022-10-12T21:21:18.909Z,14.25
2022-10-12T21:23:58.807Z,14.16
2022-10-12T21:26:28.839Z,14.07
2022-10-12T21:28:55.790Z,14.14
2022-10-12T21:31:22.664Z,14.11
2022-10-12T21:33:49.883Z,13.83
2022-10-12T21:36:23.511Z,13.99
2022-10-12T21:38:50.659Z,14.03
2022-10-12T21:41:21.030Z,14.01
2022-10-12T21:43:49.015Z,13.99
2022-10-12T21:46:24.923Z,13.96
2022-10-12T21:48:52.811Z,13.94
2022-10-12T21:51:22.504Z,13.94
2022-10-12T21:53:50.478Z,13.93
2022-10-12T21:56:29.777Z,13.90
2022-10-12T21:58:59.631Z,13.85
2022-10-12T22:01:38.475Z,13.86
2022-10-12T22:04:11.730Z,13.76
2022-10-12T22:06:38.695Z,13.75
2022-10-12T22:09:16.405Z,13.81
2022-10-12T22:11:43.907Z,13.79
2022-10-12T22:14:15.965Z,13.73
2022-10-12T22:16:43.365Z,13.68
2022-10-12T22:19:15.180Z,13.63
2022-10-12T22:21:42.196Z,13.67
2022-10-12T22:24:09.099Z,13.64
2022-10-12T22:26:36.021Z,13.62
2022-10-12T22:29:07.462Z,13.62
2022-10-12T22:31:35.232Z,13.67
2022-10-12T22:34:02.190Z,13.64
2022-10-12T22:36:29.070Z,13.58
2022-10-12T22:38:55.851Z,13.55
2022-10-12T22:41:24.441Z,13.58
2022-10-12T22:43:54.929Z,13.56
2022-10-12T22:46:25.427Z,13.53
2022-10-12T22:48:53.250Z,13.57
2022-10-12T22:51:33.176Z,13.56
2022-10-12T22:54:01.060Z,13.48
2022-10-12T22:56:28.593Z,13.46
2022-10-12T22:58:58.495Z,13.46
2022-10-12T23:01:26.074Z,13.51
2022-10-12T23:03:54.270Z,13.44
2022-10-12T23:06:21.661Z,13.44
2022-10-12T23:08:48.584Z,13.40
2022-10-12T23:11:18.802Z,13.37
2022-10-12T23:13:46.900Z,13.39
2022-10-12T23:16:16.071Z,13.38
2022-10-12T23:18:42.855Z,13.30
2022-10-12T23:21:13.481Z,13.30
2022-10-12T23:23:41.623Z,13.24
2022-10-12T23:26:14.101Z,13.31
2022-10-12T23:28:41.328Z,13.24
2022-10-12T23:31:13.931Z,13.17
2022-10-12T23:33:41.295Z,13.18
2022-10-12T23:36:12.176Z,13.18
2022-10-12T23:38:40.503Z,13.07
2022-10-12T23:41:07.844Z,13.12
2022-10-12T23:43:35.270Z,13.11
2022-10-12T23:46:04.188Z,13.09
2022-10-12T23:48:31.379Z,13.13
2022-10-12T23:50:58.225Z,13.10
2022-10-12T23:53:25.931Z,13.02
2022-10-12T23:55:52.812Z,13.04
2022-10-12T23:58:20.108Z,13.04
